sensor_id;sensor_type;location;lat;lon;timestamp;pressure;altitude;pressure_sealevel;temperature;humidity
68320;BME280;55168;51.120;17.024;2023-03-22T00:00:00;99980;;;8.2;100.0
68320;BME280;55168;51.120;17.024;2023-03-22T00:01:07;99980;;;8.2;100.0
68320;BME280;55168;51.120;17.024;2023-03-22T00:02:00;99980;;;8.2;100.0
68320;BME280;55168;51.120;17.024;2023-03-22T00:03:00;99970;;;8.2;100.0
68320;BME280;55168;51.120;17.024;2023-03-22T00:04:00;99980;;;8.2;100.0
68320;BME280;55168;51.120;17.024;2023-03-22T00:05:00;99970;;;8.2;100.0
68320;BME280;55168;51.120;17.024;2023-03-22T00:06:00;99970;;;8.2;100.0
68320;BME280;55168;51.120;17.024;2023-03-22T00:07:00;99970;;;8.2;100.0
68320;BME280;55168;51.120;17.024;2023-03-22T00:08:00;99970;;;8.2;100.0
68320;BME280;55168;51.120;17.024;2023-03-22T00:09:00;99970;;;8.2;100.0
68320;BME280;55168;51.120;17.024;2023-03-22T00:10:00;99970;;;8.1;100.0
68320;BME280;55168;51.120;17.024;2023-03-22T00:11:00;99960;;;8.1;100.0
68320;BME280;55168;51.120;17.024;2023-03-22T00:12:00;99960;;;8.1;100.0
68320;BME280;55168;51.120;17.024;2023-03-22T00:13:00;99950;;;8.1;100.0
68320;BME280;55168;51.120;17.024;2023-03-22T00:14:00;99960;;;8.1;100.0
68320;BME280;55168;51.120;17.024;2023-03-22T00:15:00;99950;;;8.1;100.0
68320;BME280;55168;51.120;17.024;2023-03-22T00:16:00;99950;;;8.1;100.0
68320;BME280;55168;51.120;17.024;2023-03-22T00:17:00;99950;;;8.0;100.0
68320;BME280;55168;51.120;17.024;2023-03-22T00:18:00;99950;;;8.0;100.0
68320;BME280;55168;51.120;17.024;2023-03-22T00:19:00;99950;;;8.0;100.0
68320;BME280;55168;51.120;17.024;2023-03-22T00:20:00;99950;;;8.0;100.0
68320;BME280;55168;51.120;17.024;2023-03-22T00:21:00;99950;;;8.0;100.0
68320;BME280;55168;51.120;17.024;2023-03-22T00:22:00;99940;;;8.0;100.0
68320;BME280;55168;51.120;17.024;2023-03-22T00:23:00;99940;;;8.0;100.0
68320;BME280;55168;51.120;17.024;2023-03-22T00:24:00;99940;;;8.0;100.0
68320;BME280;55168;51.120;17.024;2023-03-22T00:25:00;99930;;;8.0;100.0
68320;BME280;55168;51.120;17.024;2023-03-22T00:26:00;99930;;;8.0;100.0
68320;BME280;55168;51.120;17.024;2023-03-22T00:27:00;99930;;;8.0;100.0
68320;BME280;55168;51.120;17.024;2023-03-22T00:28:00;99930;;;8.0;100.0
68320;BME280;55168;51.120;17.024;2023-03-22T00:29:00;99930;;;7.9;100.0
68320;BME280;55168;51.120;17.024;2023-03-22T00:30:00;99930;;;7.9;100.0
68320;BME280;55168;51.120;17.024;2023-03-22T00:31:00;99930;;;7.9;100.0
68320;BME280;55168;51.120;17.024;2023-03-22T00:32:00;99930;;;7.9;100.0
68320;BME280;55168;51.120;17.024;2023-03-22T00:33:00;99930;;;7.9;100.0
68320;BME280;55168;51.120;17.024;2023-03-22T00:34:00;99930;;;7.9;100.0
68320;BME280;55168;51.120;17.024;2023-03-22T00:35:00;99930;;;7.9;100.0
68320;BME280;55168;51.120;17.024;2023-03-22T00:36:01;99930;;;7.9;100.0
68320;BME280;55168;51.120;17.024;2023-03-22T00:37:00;99930;;;7.9;100.0
68320;BME280;55168;51.120;17.024;2023-03-22T00:38:00;99930;;;8.0;100.0
68320;BME280;55168;51.120;17.024;2023-03-22T00:39:00;99930;;;8.0;100.0
68320;BME280;55168;51.120;17.024;2023-03-22T00:40:00;99930;;;8.0;100.0
68320;BME280;55168;51.120;17.024;2023-03-22T00:41:16;99930;;;8.0;100.0
68320;BME280;55168;51.120;17.024;2023-03-22T00:42:00;99930;;;8.0;100.0
68320;BME280;55168;51.120;17.024;2023-03-22T00:43:00;99920;;;8.0;100.0
68320;BME280;55168;51.120;17.024;2023-03-22T00:44:00;99930;;;7.9;100.0
68320;BME280;55168;51.120;17.024;2023-03-22T00:45:00;99920;;;8.0;100.0
68320;BME280;55168;51.120;17.024;2023-03-22T00:46:00;99920;;;8.0;100.0
68320;BME280;55168;51.120;17.024;2023-03-22T00:47:00;99920;;;8.0;100.0
68320;BME280;55168;51.120;17.024;2023-03-22T00:48:00;99920;;;8.0;100.0
68320;BME280;55168;51.120;17.024;2023-03-22T00:49:00;99920;;;8.0;100.0
68320;BME280;55168;51.120;17.024;2023-03-22T00:50:00;99910;;;8.0;100.0
68320;BME280;55168;51.120;17.024;2023-03-22T00:51:00;99910;;;8.0;100.0
68320;BME280;55168;51.120;17.024;2023-03-22T00:52:00;99910;;;8.0;100.0
68320;BME280;55168;51.120;17.024;2023-03-22T00:53:00;99910;;;8.0;100.0
68320;BME280;55168;51.120;17.024;2023-03-22T00:54:00;99910;;;8.0;100.0
68320;BME280;55168;51.120;17.024;2023-03-22T00:55:00;99910;;;8.0;100.0
68320;BME280;55168;51.120;17.024;2023-03-22T00:56:00;99910;;;8.0;100.0
68320;BME280;55168;51.120;17.024;2023-03-22T00:57:00;99910;;;8.0;100.0
68320;BME280;55168;51.120;17.024;2023-03-22T00:58:00;99900;;;8.0;100.0
68320;BME280;55168;51.120;17.024;2023-03-22T00:59:00;99910;;;8.0;100.0
68320;BME280;55168;51.120;17.024;2023-03-22T01:00:00;99910;;;8.0;100.0
68320;BME280;55168;51.120;17.024;2023-03-22T01:01:00;99900;;;8.0;100.0
68320;BME280;55168;51.120;17.024;2023-03-22T01:02:00;99900;;;8.0;100.0
68320;BME280;55168;51.120;17.024;2023-03-22T01:03:00;99910;;;8.0;100.0
68320;BME280;55168;51.120;17.024;2023-03-22T01:04:00;99900;;;8.0;100.0
68320;BME280;55168;51.120;17.024;2023-03-22T01:05:00;99900;;;8.0;100.0
68320;BME280;55168;51.120;17.024;2023-03-22T01:06:00;99910;;;8.0;100.0
68320;BME280;55168;51.120;17.024;2023-03-22T01:07:00;99910;;;8.0;100.0
68320;BME280;55168;51.120;17.024;2023-03-22T01:08:00;99900;;;8.0;100.0
68320;BME280;55168;51.120;17.024;2023-03-22T01:09:00;99900;;;8.0;100.0
68320;BME280;55168;51.120;17.024;2023-03-22T01:10:00;99900;;;8.0;100.0
68320;BME280;55168;51.120;17.024;2023-03-22T01:11:00;99900;;;8.0;100.0
68320;BME280;55168;51.120;17.024;2023-03-22T01:12:00;99900;;;8.0;100.0
68320;BME280;55168;51.120;17.024;2023-03-22T01:13:00;99900;;;8.0;100.0
68320;BME280;55168;51.120;17.024;2023-03-22T01:14:00;99900;;;8.0;100.0
68320;BME280;55168;51.120;17.024;2023-03-22T01:15:00;99900;;;8.0;100.0
68320;BME280;55168;51.120;17.024;2023-03-22T01:16:00;99900;;;8.0;100.0
68320;BME280;55168;51.120;17.024;2023-03-22T01:17:00;99900;;;8.0;100.0
68320;BME280;55168;51.120;17.024;2023-03-22T01:18:00;99900;;;8.0;100.0
68320;BME280;55168;51.120;17.024;2023-03-22T01:19:00;99900;;;8.0;100.0
68320;BME280;55168;51.120;17.024;2023-03-22T01:20:00;99890;;;8.0;100.0
68320;BME280;55168;51.120;17.024;2023-03-22T01:21:00;99900;;;8.0;100.0
68320;BME280;55168;51.120;17.024;2023-03-22T01:22:00;99900;;;8.0;100.0
68320;BME280;55168;51.120;17.024;2023-03-22T01:23:00;99890;;;8.0;100.0
68320;BME280;55168;51.120;17.024;2023-03-22T01:24:00;99890;;;8.0;100.0
68320;BME280;55168;51.120;17.024;2023-03-22T01:25:00;99890;;;8.0;100.0
68320;BME280;55168;51.120;17.024;2023-03-22T01:26:00;99890;;;8.0;100.0
68320;BME280;55168;51.120;17.024;2023-03-22T01:27:00;99890;;;8.0;100.0
68320;BME280;55168;51.120;17.024;2023-03-22T01:28:00;99890;;;8.0;100.0
68320;BME280;55168;51.120;17.024;2023-03-22T01:29:00;99880;;;8.0;100.0
68320;BME280;55168;51.120;17.024;2023-03-22T01:30:00;99880;;;8.0;100.0
68320;BME280;55168;51.120;17.024;2023-03-22T01:31:00;99880;;;8.0;100.0
68320;BME280;55168;51.120;17.024;2023-03-22T01:32:00;99880;;;8.0;100.0
68320;BME280;55168;51.120;17.024;2023-03-22T01:33:00;99880;;;8.0;100.0
68320;BME280;55168;51.120;17.024;2023-03-22T01:34:00;99880;;;8.0;100.0
68320;BME280;55168;51.120;17.024;2023-03-22T01:35:00;99880;;;8.0;100.0
68320;BME280;55168;51.120;17.024;2023-03-22T01:36:00;99880;;;8.0;100.0
68320;BME280;55168;51.120;17.024;2023-03-22T01:37:00;99880;;;8.0;100.0
68320;BME280;55168;51.120;17.024;2023-03-22T01:38:00;99880;;;8.0;100.0
68320;BME280;55168;51.120;17.024;2023-03-22T01:39:00;99880;;;8.0;100.0
68320;BME280;55168;51.120;17.024;2023-03-22T01:40:00;99880;;;8.0;100.0
68320;BME280;55168;51.120;17.024;2023-03-22T01:41:00;99870;;;8.0;100.0
68320;BME280;55168;51.120;17.024;2023-03-22T01:42:01;99880;;;8.0;100.0
68320;BME280;55168;51.120;17.024;2023-03-22T01:43:00;99880;;;8.0;100.0
68320;BME280;55168;51.120;17.024;2023-03-22T01:44:08;99880;;;8.0;100.0
68320;BME280;55168;51.120;17.024;2023-03-22T01:46:00;99870;;;8.0;100.0
68320;BME280;55168;51.120;17.024;2023-03-22T01:47:00;99870;;;8.0;100.0
68320;BME280;55168;51.120;17.024;2023-03-22T01:48:04;99870;;;8.0;100.0
68320;BME280;55168;51.120;17.024;2023-03-22T01:49:00;99870;;;8.0;100.0
68320;BME280;55168;51.120;17.024;2023-03-22T01:50:00;99870;;;8.0;100.0
68320;BME280;55168;51.120;17.024;2023-03-22T01:51:03;99870;;;8.0;100.0
68320;BME280;55168;51.120;17.024;2023-03-22T01:52:03;99860;;;8.0;100.0
68320;BME280;55168;51.120;17.024;2023-03-22T01:53:00;99860;;;8.0;100.0
68320;BME280;55168;51.120;17.024;2023-03-22T01:54:01;99860;;;8.0;100.0
68320;BME280;55168;51.120;17.024;2023-03-22T01:55:00;99860;;;8.0;100.0
68320;BME280;55168;51.120;17.024;2023-03-22T01:56:00;99860;;;8.0;100.0
68320;BME280;55168;51.120;17.024;2023-03-22T01:57:00;99860;;;8.0;100.0
68320;BME280;55168;51.120;17.024;2023-03-22T01:58:00;99860;;;7.9;100.0
68320;BME280;55168;51.120;17.024;2023-03-22T01:59:00;99860;;;7.9;100.0
68320;BME280;55168;51.120;17.024;2023-03-22T02:00:00;99860;;;7.9;100.0
68320;BME280;55168;51.120;17.024;2023-03-22T02:01:00;99860;;;7.9;100.0
68320;BME280;55168;51.120;17.024;2023-03-22T02:02:00;99860;;;7.9;100.0
68320;BME280;55168;51.120;17.024;2023-03-22T02:03:00;99860;;;7.9;100.0
68320;BME280;55168;51.120;17.024;2023-03-22T02:04:03;99860;;;7.9;100.0
68320;BME280;55168;51.120;17.024;2023-03-22T02:05:00;99860;;;7.9;100.0
68320;BME280;55168;51.120;17.024;2023-03-22T02:06:00;99860;;;7.9;100.0
68320;BME280;55168;51.120;17.024;2023-03-22T02:07:01;99860;;;7.9;100.0
68320;BME280;55168;51.120;17.024;2023-03-22T02:08:00;99860;;;7.9;100.0
68320;BME280;55168;51.120;17.024;2023-03-22T02:09:00;99860;;;7.9;100.0
68320;BME280;55168;51.120;17.024;2023-03-22T02:10:00;99860;;;7.9;100.0
68320;BME280;55168;51.120;17.024;2023-03-22T02:11:00;99860;;;7.9;100.0
68320;BME280;55168;51.120;17.024;2023-03-22T02:12:04;99860;;;7.9;100.0
68320;BME280;55168;51.120;17.024;2023-03-22T02:13:05;99860;;;7.9;100.0
68320;BME280;55168;51.120;17.024;2023-03-22T02:15:02;99860;;;7.9;100.0
68320;BME280;55168;51.120;17.024;2023-03-22T02:16:06;99860;;;7.8;100.0
68320;BME280;55168;51.120;17.024;2023-03-22T02:19:06;99860;;;7.9;100.0
68320;BME280;55168;51.120;17.024;2023-03-22T02:20:10;99860;;;7.8;100.0
68320;BME280;55168;51.120;17.024;2023-03-22T02:24:08;99850;;;7.8;100.0
68320;BME280;55168;51.120;17.024;2023-03-22T02:26:04;99850;;;7.8;100.0
68320;BME280;55168;51.120;17.024;2023-03-22T02:28:06;99850;;;7.8;100.0
68320;BME280;55168;51.120;17.024;2023-03-22T02:29:06;99850;;;7.8;100.0
68320;BME280;55168;51.120;17.024;2023-03-22T02:34:15;99860;;;7.7;100.0
68320;BME280;55168;51.120;17.024;2023-03-22T02:35:05;99860;;;7.8;100.0
68320;BME280;55168;51.120;17.024;2023-03-22T02:37:03;99860;;;7.8;100.0
68320;BME280;55168;51.120;17.024;2023-03-22T02:40:06;99860;;;7.8;100.0
68320;BME280;55168;51.120;17.024;2023-03-22T02:41:04;99860;;;7.8;100.0
68320;BME280;55168;51.120;17.024;2023-03-22T02:44:04;99860;;;7.8;100.0
68320;BME280;55168;51.120;17.024;2023-03-22T02:45:17;99860;;;7.8;100.0
68320;BME280;55168;51.120;17.024;2023-03-22T02:46:05;99860;;;7.8;100.0
68320;BME280;55168;51.120;17.024;2023-03-22T02:47:03;99860;;;7.8;100.0
68320;BME280;55168;51.120;17.024;2023-03-22T02:48:04;99860;;;7.8;100.0
68320;BME280;55168;51.120;17.024;2023-03-22T02:51:16;99850;;;7.8;100.0
68320;BME280;55168;51.120;17.024;2023-03-22T02:52:02;99850;;;7.8;100.0
68320;BME280;55168;51.120;17.024;2023-03-22T02:54:01;99850;;;7.8;100.0
68320;BME280;55168;51.120;17.024;2023-03-22T02:56:02;99840;;;7.8;100.0
68320;BME280;55168;51.120;17.024;2023-03-22T02:57:04;99850;;;7.8;100.0
68320;BME280;55168;51.120;17.024;2023-03-22T02:58:05;99840;;;7.8;100.0
68320;BME280;55168;51.120;17.024;2023-03-22T02:59:01;99850;;;7.8;100.0
68320;BME280;55168;51.120;17.024;2023-03-22T03:00:00;99850;;;7.8;100.0
68320;BME280;55168;51.120;17.024;2023-03-22T03:01:01;99850;;;7.8;100.0
68320;BME280;55168;51.120;17.024;2023-03-22T03:02:00;99850;;;7.8;100.0
68320;BME280;55168;51.120;17.024;2023-03-22T03:03:02;99850;;;7.8;100.0
68320;BME280;55168;51.120;17.024;2023-03-22T03:04:02;99850;;;7.8;100.0
68320;BME280;55168;51.120;17.024;2023-03-22T03:05:00;99850;;;7.8;100.0
68320;BME280;55168;51.120;17.024;2023-03-22T03:06:01;99850;;;7.8;100.0
68320;BME280;55168;51.120;17.024;2023-03-22T03:07:02;99850;;;7.8;100.0
68320;BME280;55168;51.120;17.024;2023-03-22T03:08:00;99850;;;7.9;100.0
68320;BME280;55168;51.120;17.024;2023-03-22T03:09:00;99850;;;7.9;100.0
68320;BME280;55168;51.120;17.024;2023-03-22T03:10:00;99850;;;7.9;100.0
68320;BME280;55168;51.120;17.024;2023-03-22T03:11:00;99860;;;7.9;100.0
68320;BME280;55168;51.120;17.024;2023-03-22T03:12:00;99860;;;7.9;100.0
68320;BME280;55168;51.120;17.024;2023-03-22T03:13:00;99850;;;7.9;100.0
68320;BME280;55168;51.120;17.024;2023-03-22T03:14:00;99860;;;7.9;100.0
68320;BME280;55168;51.120;17.024;2023-03-22T03:15:00;99860;;;7.9;100.0
68320;BME280;55168;51.120;17.024;2023-03-22T03:16:00;99850;;;7.9;100.0
68320;BME280;55168;51.120;17.024;2023-03-22T03:17:04;99860;;;7.9;100.0
68320;BME280;55168;51.120;17.024;2023-03-22T03:18:04;99860;;;7.9;100.0
68320;BME280;55168;51.120;17.024;2023-03-22T03:21:03;99870;;;7.9;100.0
68320;BME280;55168;51.120;17.024;2023-03-22T03:22:02;99870;;;7.9;100.0
68320;BME280;55168;51.120;17.024;2023-03-22T03:23:05;99870;;;7.9;100.0
68320;BME280;55168;51.120;17.024;2023-03-22T03:24:04;99870;;;7.9;100.0
68320;BME280;55168;51.120;17.024;2023-03-22T03:27:03;99870;;;7.9;100.0
68320;BME280;55168;51.120;17.024;2023-03-22T03:28:03;99870;;;7.8;100.0
68320;BME280;55168;51.120;17.024;2023-03-22T03:29:02;99870;;;7.8;100.0
68320;BME280;55168;51.120;17.024;2023-03-22T03:30:02;99880;;;7.8;100.0
68320;BME280;55168;51.120;17.024;2023-03-22T03:32:05;99880;;;7.8;100.0
68320;BME280;55168;51.120;17.024;2023-03-22T03:33:02;99880;;;7.8;100.0
68320;BME280;55168;51.120;17.024;2023-03-22T03:34:04;99880;;;7.8;100.0
68320;BME280;55168;51.120;17.024;2023-03-22T03:35:03;99880;;;7.8;100.0
68320;BME280;55168;51.120;17.024;2023-03-22T03:36:01;99880;;;7.8;100.0
68320;BME280;55168;51.120;17.024;2023-03-22T03:37:17;99880;;;7.8;100.0
68320;BME280;55168;51.120;17.024;2023-03-22T03:38:03;99880;;;7.8;100.0
68320;BME280;55168;51.120;17.024;2023-03-22T03:39:00;99880;;;7.8;100.0
68320;BME280;55168;51.120;17.024;2023-03-22T03:40:03;99880;;;7.8;100.0
68320;BME280;55168;51.120;17.024;2023-03-22T03:41:02;99880;;;7.8;100.0
68320;BME280;55168;51.120;17.024;2023-03-22T03:42:00;99890;;;7.8;100.0
68320;BME280;55168;51.120;17.024;2023-03-22T03:43:01;99880;;;7.8;100.0
68320;BME280;55168;51.120;17.024;2023-03-22T03:44:00;99880;;;7.7;100.0
68320;BME280;55168;51.120;17.024;2023-03-22T03:45:00;99890;;;7.7;100.0
68320;BME280;55168;51.120;17.024;2023-03-22T03:46:00;99890;;;7.7;100.0
68320;BME280;55168;51.120;17.024;2023-03-22T03:47:00;99890;;;7.7;100.0
68320;BME280;55168;51.120;17.024;2023-03-22T03:48:01;99890;;;7.8;100.0
68320;BME280;55168;51.120;17.024;2023-03-22T03:49:00;99890;;;7.7;100.0
68320;BME280;55168;51.120;17.024;2023-03-22T03:50:00;99890;;;7.7;100.0
68320;BME280;55168;51.120;17.024;2023-03-22T03:51:00;99890;;;7.7;100.0
68320;BME280;55168;51.120;17.024;2023-03-22T03:52:00;99890;;;7.7;100.0
68320;BME280;55168;51.120;17.024;2023-03-22T03:53:00;99890;;;7.7;100.0
68320;BME280;55168;51.120;17.024;2023-03-22T03:54:00;99890;;;7.7;100.0
68320;BME280;55168;51.120;17.024;2023-03-22T03:55:00;99890;;;7.7;100.0
68320;BME280;55168;51.120;17.024;2023-03-22T03:56:00;99890;;;7.7;100.0
68320;BME280;55168;51.120;17.024;2023-03-22T03:57:00;99890;;;7.7;100.0
68320;BME280;55168;51.120;17.024;2023-03-22T03:58:00;99900;;;7.8;100.0
68320;BME280;55168;51.120;17.024;2023-03-22T03:59:00;99900;;;7.8;100.0
68320;BME280;55168;51.120;17.024;2023-03-22T04:00:00;99900;;;7.8;100.0
68320;BME280;55168;51.120;17.024;2023-03-22T04:01:00;99900;;;7.8;100.0
68320;BME280;55168;51.120;17.024;2023-03-22T04:02:00;99900;;;7.8;100.0
68320;BME280;55168;51.120;17.024;2023-03-22T04:03:00;99900;;;7.8;100.0
68320;BME280;55168;51.120;17.024;2023-03-22T04:04:00;99900;;;7.8;100.0
68320;BME280;55168;51.120;17.024;2023-03-22T04:05:00;99900;;;7.8;100.0
68320;BME280;55168;51.120;17.024;2023-03-22T04:06:00;99900;;;7.8;100.0
68320;BME280;55168;51.120;17.024;2023-03-22T04:07:01;99900;;;7.8;100.0
68320;BME280;55168;51.120;17.024;2023-03-22T04:08:00;99900;;;7.8;100.0
68320;BME280;55168;51.120;17.024;2023-03-22T04:09:00;99900;;;7.8;100.0
68320;BME280;55168;51.120;17.024;2023-03-22T04:10:00;99900;;;7.8;100.0
68320;BME280;55168;51.120;17.024;2023-03-22T04:11:00;99900;;;7.7;100.0
68320;BME280;55168;51.120;17.024;2023-03-22T04:12:00;99900;;;7.7;100.0
68320;BME280;55168;51.120;17.024;2023-03-22T04:13:00;99890;;;7.7;100.0
68320;BME280;55168;51.120;17.024;2023-03-22T04:14:00;99890;;;7.7;100.0
68320;BME280;55168;51.120;17.024;2023-03-22T04:15:00;99890;;;7.7;100.0
68320;BME280;55168;51.120;17.024;2023-03-22T04:16:00;99890;;;7.7;100.0
68320;BME280;55168;51.120;17.024;2023-03-22T04:17:00;99890;;;7.7;100.0
68320;BME280;55168;51.120;17.024;2023-03-22T04:18:00;99890;;;7.7;100.0
68320;BME280;55168;51.120;17.024;2023-03-22T04:19:00;99890;;;7.7;100.0
68320;BME280;55168;51.120;17.024;2023-03-22T04:20:00;99880;;;7.7;100.0
68320;BME280;55168;51.120;17.024;2023-03-22T04:21:00;99880;;;7.7;100.0
68320;BME280;55168;51.120;17.024;2023-03-22T04:22:00;99880;;;7.7;100.0
68320;BME280;55168;51.120;17.024;2023-03-22T04:23:00;99880;;;7.7;100.0
68320;BME280;55168;51.120;17.024;2023-03-22T04:24:00;99870;;;7.7;100.0
68320;BME280;55168;51.120;17.024;2023-03-22T04:25:00;99870;;;7.7;100.0
68320;BME280;55168;51.120;17.024;2023-03-22T04:26:00;99880;;;7.7;100.0
68320;BME280;55168;51.120;17.024;2023-03-22T04:27:00;99880;;;7.7;100.0
68320;BME280;55168;51.120;17.024;2023-03-22T04:28:00;99880;;;7.7;100.0
68320;BME280;55168;51.120;17.024;2023-03-22T04:29:00;99880;;;7.7;100.0
68320;BME280;55168;51.120;17.024;2023-03-22T04:30:00;99880;;;7.7;100.0
68320;BME280;55168;51.120;17.024;2023-03-22T04:31:00;99880;;;7.7;100.0
68320;BME280;55168;51.120;17.024;2023-03-22T04:32:00;99880;;;7.7;100.0
68320;BME280;55168;51.120;17.024;2023-03-22T04:33:01;99880;;;7.7;100.0
68320;BME280;55168;51.120;17.024;2023-03-22T04:34:00;99880;;;7.7;100.0
68320;BME280;55168;51.120;17.024;2023-03-22T04:35:00;99880;;;7.7;100.0
68320;BME280;55168;51.120;17.024;2023-03-22T04:36:00;99880;;;7.7;100.0
68320;BME280;55168;51.120;17.024;2023-03-22T04:37:00;99880;;;7.8;100.0
68320;BME280;55168;51.120;17.024;2023-03-22T04:38:00;99880;;;7.8;100.0
68320;BME280;55168;51.120;17.024;2023-03-22T04:39:02;99880;;;7.8;100.0
68320;BME280;55168;51.120;17.024;2023-03-22T04:40:00;99880;;;7.8;100.0
68320;BME280;55168;51.120;17.024;2023-03-22T04:41:00;99870;;;7.8;100.0
68320;BME280;55168;51.120;17.024;2023-03-22T04:42:00;99870;;;7.8;100.0
68320;BME280;55168;51.120;17.024;2023-03-22T04:43:00;99870;;;7.8;100.0
68320;BME280;55168;51.120;17.024;2023-03-22T04:44:00;99870;;;7.8;100.0
68320;BME280;55168;51.120;17.024;2023-03-22T04:45:00;99870;;;7.9;100.0
68320;BME280;55168;51.120;17.024;2023-03-22T04:46:00;99870;;;7.8;100.0
68320;BME280;55168;51.120;17.024;2023-03-22T04:47:00;99870;;;7.8;100.0
68320;BME280;55168;51.120;17.024;2023-03-22T04:48:00;99870;;;7.8;100.0
68320;BME280;55168;51.120;17.024;2023-03-22T04:49:00;99870;;;7.8;100.0
68320;BME280;55168;51.120;17.024;2023-03-22T04:50:00;99870;;;7.9;100.0
68320;BME280;55168;51.120;17.024;2023-03-22T04:51:00;99870;;;7.9;100.0
68320;BME280;55168;51.120;17.024;2023-03-22T04:52:00;99860;;;7.8;100.0
68320;BME280;55168;51.120;17.024;2023-03-22T04:53:00;99860;;;7.9;100.0
68320;BME280;55168;51.120;17.024;2023-03-22T04:54:00;99860;;;7.9;100.0
68320;BME280;55168;51.120;17.024;2023-03-22T04:55:00;99860;;;7.9;100.0
68320;BME280;55168;51.120;17.024;2023-03-22T04:56:00;99850;;;7.9;100.0
68320;BME280;55168;51.120;17.024;2023-03-22T04:57:00;99850;;;7.9;100.0
68320;BME280;55168;51.120;17.024;2023-03-22T04:58:00;99850;;;7.9;100.0
68320;BME280;55168;51.120;17.024;2023-03-22T04:59:00;99850;;;7.9;100.0
68320;BME280;55168;51.120;17.024;2023-03-22T05:00:00;99850;;;7.9;100.0
68320;BME280;55168;51.120;17.024;2023-03-22T05:01:00;99850;;;7.9;100.0
68320;BME280;55168;51.120;17.024;2023-03-22T05:02:00;99850;;;7.9;100.0
68320;BME280;55168;51.120;17.024;2023-03-22T05:03:00;99850;;;7.9;100.0
68320;BME280;55168;51.120;17.024;2023-03-22T05:04:00;99850;;;7.9;100.0
68320;BME280;55168;51.120;17.024;2023-03-22T05:05:00;99850;;;7.9;100.0
68320;BME280;55168;51.120;17.024;2023-03-22T05:06:00;99850;;;7.9;100.0
68320;BME280;55168;51.120;17.024;2023-03-22T05:07:00;99860;;;7.9;100.0
68320;BME280;55168;51.120;17.024;2023-03-22T05:08:00;99860;;;7.8;100.0
68320;BME280;55168;51.120;17.024;2023-03-22T05:09:00;99860;;;7.8;100.0
68320;BME280;55168;51.120;17.024;2023-03-22T05:10:00;99850;;;7.8;100.0
68320;BME280;55168;51.120;17.024;2023-03-22T05:11:04;99850;;;7.8;100.0
68320;BME280;55168;51.120;17.024;2023-03-22T05:12:00;99850;;;7.8;100.0
68320;BME280;55168;51.120;17.024;2023-03-22T05:13:00;99850;;;7.8;100.0
68320;BME280;55168;51.120;17.024;2023-03-22T05:14:00;99860;;;7.8;100.0
68320;BME280;55168;51.120;17.024;2023-03-22T05:15:00;99860;;;7.8;100.0
68320;BME280;55168;51.120;17.024;2023-03-22T05:16:00;99860;;;7.8;100.0
68320;BME280;55168;51.120;17.024;2023-03-22T05:17:00;99860;;;7.8;100.0
68320;BME280;55168;51.120;17.024;2023-03-22T05:18:00;99850;;;7.8;100.0
68320;BME280;55168;51.120;17.024;2023-03-22T05:19:00;99860;;;7.8;100.0
68320;BME280;55168;51.120;17.024;2023-03-22T05:20:00;99860;;;7.8;100.0
68320;BME280;55168;51.120;17.024;2023-03-22T05:21:00;99850;;;7.8;100.0
68320;BME280;55168;51.120;17.024;2023-03-22T05:22:00;99850;;;7.8;100.0
68320;BME280;55168;51.120;17.024;2023-03-22T05:23:00;99850;;;7.8;100.0
68320;BME280;55168;51.120;17.024;2023-03-22T05:24:00;99860;;;7.8;100.0
68320;BME280;55168;51.120;17.024;2023-03-22T05:25:00;99850;;;7.8;100.0
68320;BME280;55168;51.120;17.024;2023-03-22T05:26:00;99860;;;7.8;100.0
68320;BME280;55168;51.120;17.024;2023-03-22T05:27:00;99860;;;7.8;100.0
68320;BME280;55168;51.120;17.024;2023-03-22T05:28:00;99860;;;7.8;100.0
68320;BME280;55168;51.120;17.024;2023-03-22T05:29:00;99860;;;7.8;100.0
68320;BME280;55168;51.120;17.024;2023-03-22T05:30:00;99860;;;7.8;100.0
68320;BME280;55168;51.120;17.024;2023-03-22T05:31:00;99860;;;7.8;100.0
68320;BME280;55168;51.120;17.024;2023-03-22T05:32:00;99860;;;7.7;100.0
68320;BME280;55168;51.120;17.024;2023-03-22T05:33:01;99870;;;7.7;100.0
68320;BME280;55168;51.120;17.024;2023-03-22T05:34:00;99870;;;7.7;100.0
68320;BME280;55168;51.120;17.024;2023-03-22T05:35:00;99870;;;7.7;100.0
68320;BME280;55168;51.120;17.024;2023-03-22T05:36:00;99870;;;7.7;100.0
68320;BME280;55168;51.120;17.024;2023-03-22T05:37:00;99870;;;7.7;100.0
68320;BME280;55168;51.120;17.024;2023-03-22T05:38:00;99870;;;7.7;100.0
68320;BME280;55168;51.120;17.024;2023-03-22T05:39:00;99870;;;7.7;100.0
68320;BME280;55168;51.120;17.024;2023-03-22T05:40:00;99870;;;7.7;100.0
68320;BME280;55168;51.120;17.024;2023-03-22T05:41:00;99870;;;7.8;100.0
68320;BME280;55168;51.120;17.024;2023-03-22T05:42:00;99870;;;7.8;100.0
68320;BME280;55168;51.120;17.024;2023-03-22T05:43:00;99870;;;7.8;100.0
68320;BME280;55168;51.120;17.024;2023-03-22T05:44:00;99870;;;7.8;100.0
68320;BME280;55168;51.120;17.024;2023-03-22T05:45:00;99870;;;7.8;100.0
68320;BME280;55168;51.120;17.024;2023-03-22T05:46:03;99870;;;7.8;100.0
68320;BME280;55168;51.120;17.024;2023-03-22T05:47:00;99870;;;7.8;100.0
68320;BME280;55168;51.120;17.024;2023-03-22T05:48:00;99870;;;7.8;100.0
68320;BME280;55168;51.120;17.024;2023-03-22T05:49:00;99870;;;7.9;100.0
68320;BME280;55168;51.120;17.024;2023-03-22T05:50:00;99870;;;7.9;100.0
68320;BME280;55168;51.120;17.024;2023-03-22T05:51:00;99870;;;7.9;100.0
68320;BME280;55168;51.120;17.024;2023-03-22T05:52:00;99870;;;7.9;100.0
68320;BME280;55168;51.120;17.024;2023-03-22T05:53:00;99870;;;7.9;100.0
68320;BME280;55168;51.120;17.024;2023-03-22T05:54:00;99870;;;8.0;100.0
68320;BME280;55168;51.120;17.024;2023-03-22T05:55:00;99870;;;8.0;100.0
68320;BME280;55168;51.120;17.024;2023-03-22T05:56:00;99870;;;8.0;100.0
68320;BME280;55168;51.120;17.024;2023-03-22T05:57:00;99870;;;8.0;100.0
68320;BME280;55168;51.120;17.024;2023-03-22T05:58:00;99870;;;8.0;100.0
68320;BME280;55168;51.120;17.024;2023-03-22T05:59:00;99860;;;8.0;100.0
68320;BME280;55168;51.120;17.024;2023-03-22T06:00:00;99860;;;8.1;100.0
68320;BME280;55168;51.120;17.024;2023-03-22T06:01:04;99860;;;8.1;100.0
68320;BME280;55168;51.120;17.024;2023-03-22T06:02:00;99860;;;8.1;100.0